Time;durP1;ratioP1;P1;durP2;ratioP2;P2;SDS_P1;SDS_P2;PMS_P1;PMS_P2;Temp;Humidity;BMP_temperature;BMP_pressure;BME280_temperature;BME280_humidity;BME280_pressure;Samples;Min_cycle;Max_cycle;Signal;HPM_P1;HPM_P2
2023/10/03 00:01:04;;;;;;;3.13;2.37;;;;;;;21.81;67.71;100185.97;5074594;28;20179;-79
2023/10/03 00:03:30;;;;;;;0.20;0.20;;;;;;;21.82;67.78;100196.69;5075283;28;20225;-79
2023/10/03 00:05:56;;;;;;;1.30;0.43;;;;;;;22.06;67.08;100200.75;5075356;28;20174;-81
2023/10/03 00:08:26;;;;;;;10.83;2.00;;;;;;;21.83;67.21;100181.59;5076343;28;20181;-80
2023/10/03 00:10:52;;;;;;;0.00;0.00;;;;;;;22.13;66.79;100192.44;5075877;28;20178;-80
2023/10/03 00:13:19;;;;;;;0.00;0.00;;;;;;;22.02;67.01;100183.25;5075960;28;20324;-80
2023/10/03 00:15:45;;;;;;;1.90;1.47;;;;;;;21.98;66.68;100166.50;5075611;28;20198;-80
2023/10/03 00:18:14;;;;;;;1.70;0.90;;;;;;;22.06;66.32;100172.94;5075948;28;20201;-79
2023/10/03 00:20:40;;;;;;;0.00;0.00;;;;;;;22.20;66.04;100177.72;5074236;28;20205;-80
2023/10/03 00:23:06;;;;;;;1.90;1.80;;;;;;;22.42;64.96;100170.16;5073685;28;20214;-80
2023/10/03 00:25:31;;;;;;;0.00;0.00;;;;;;;22.22;65.68;100170.56;5074268;28;20683;-80
2023/10/03 00:28:00;;;;;;;2.17;1.87;;;;;;;22.09;66.07;100152.66;5075557;28;20178;-79
2023/10/03 00:30:28;;;;;;;1.03;1.03;;;;;;;22.12;66.23;100148.28;5074954;28;20187;-79
2023/10/03 00:32:54;;;;;;;2.13;2.03;;;;;;;22.05;66.44;100140.72;5073583;28;20656;-80
2023/10/03 00:35:20;;;;;;;0.17;0.17;;;;;;;22.15;66.26;100141.94;5076919;28;20702;-80
2023/10/03 00:37:51;;;;;;;1.43;1.33;;;;;;;21.96;66.82;100121.59;5076623;28;20175;-80
2023/10/03 00:43:01;;;;;;;1.10;1.10;;;;;;;22.04;66.66;100116.84;5074791;28;20182;-80
2023/10/03 00:45:29;;;;;;;1.20;1.10;;;;;;;21.98;66.44;100105.31;5074902;28;20296;-79
2023/10/03 00:48:00;;;;;;;2.40;1.13;;;;;;;22.00;66.86;100107.72;5074194;28;20178;-79
2023/10/03 00:50:27;;;;;;;0.00;0.00;;;;;;;22.18;66.29;100116.88;5074716;28;20244;-80
2023/10/03 00:52:59;;;;;;;1.07;0.87;;;;;;;21.96;66.73;100096.56;5072617;28;20771;-80
2023/10/03 00:55:29;;;;;;;0.00;0.00;;;;;;;22.19;66.71;100101.78;5072738;28;20210;-80
2023/10/03 01:00:42;;;;;;;0.30;0.30;;;;;;;22.12;66.45;100085.06;5074283;28;20193;-80
2023/10/03 01:03:27;;;;;;;0.00;0.00;;;;;;;22.08;66.70;100075.16;5074026;28;20252;-79
2023/10/03 01:05:53;;;;;;;0.00;0.00;;;;;;;21.97;67.06;100077.88;5074233;28;20181;-80
2023/10/03 01:08:23;;;;;;;1.80;1.70;;;;;;;21.93;67.49;100075.13;5072313;28;20272;-79
2023/10/03 01:10:48;;;;;;;1.50;1.50;;;;;;;21.98;67.26;100060.78;5073821;28;20170;-80
2023/10/03 01:13:14;;;;;;;0.73;0.73;;;;;;;22.05;66.92;100062.00;5074542;28;20243;-80
2023/10/03 01:15:40;;;;;;;3.20;1.37;;;;;;;22.12;67.10;100071.16;5074958;28;20205;-80
2023/10/03 01:18:09;;;;;;;0.00;0.00;;;;;;;22.15;67.09;100069.59;5075074;28;20210;-80
2023/10/03 01:20:40;;;;;;;0.60;0.60;;;;;;;22.08;67.39;100056.47;5073587;28;20618;-79
2023/10/03 01:23:15;;;;;;;0.00;0.00;;;;;;;22.33;66.82;100072.34;5073531;28;20580;-81
2023/10/03 01:25:44;;;;;;;0.00;0.00;;;;;;;22.19;67.10;100057.25;5073690;28;20226;-81
2023/10/03 01:28:10;;;;;;;0.00;0.00;;;;;;;22.29;67.21;100057.66;5072245;28;20539;-80
2023/10/03 01:30:36;;;;;;;0.00;0.00;;;;;;;21.90;67.56;100017.50;5073284;28;20174;-79
2023/10/03 01:33:02;;;;;;;0.00;0.00;;;;;;;22.01;68.34;100041.75;5072651;28;20186;-80
2023/10/03 01:35:28;;;;;;;0.00;0.00;;;;;;;21.93;68.66;100032.59;5073207;28;20691;-80
2023/10/03 01:37:53;;;;;;;0.00;0.00;;;;;;;21.99;68.38;100022.66;5073795;28;20175;-81
2023/10/03 01:40:19;;;;;;;0.00;0.00;;;;;;;22.05;68.12;100012.75;5072234;28;20555;-81
2023/10/03 01:42:46;;;;;;;0.10;0.10;;;;;;;22.13;68.21;100013.50;5086062;28;20170;-80
2023/10/03 01:45:21;;;;;;;0.27;0.27;;;;;;;22.13;68.52;100017.13;5092070;28;20189;-80
2023/10/03 01:47:51;;;;;;;2.77;0.40;;;;;;;21.93;68.93;100013.91;5092046;28;20176;-79
2023/10/03 01:50:21;;;;;;;0.57;0.57;;;;;;;21.93;69.13;99997.22;5093136;28;20651;-80
2023/10/03 01:52:48;;;;;;;0.17;0.17;;;;;;;21.80;69.23;99993.25;5092634;28;20174;-79
2023/10/03 01:55:17;;;;;;;0.00;0.00;;;;;;;21.69;69.61;99981.34;5092936;28;20276;-78
2023/10/03 01:57:44;;;;;;;0.00;0.00;;;;;;;21.76;69.59;99991.69;5091376;28;20543;-79
2023/10/03 02:00:24;;;;;;;0.10;0.10;;;;;;;21.83;69.56;100000.00;5084522;28;20177;-79
2023/10/03 02:02:53;;;;;;;1.00;0.97;;;;;;;21.76;69.46;99970.22;5091237;28;20181;-80
2023/10/03 02:05:20;;;;;;;0.00;0.00;;;;;;;21.74;69.17;99967.06;5091472;28;20178;-80
2023/10/03 02:07:45;;;;;;;0.00;0.00;;;;;;;21.77;69.72;99957.91;5091475;28;20184;-80
2023/10/03 02:10:12;;;;;;;0.10;0.10;;;;;;;21.81;69.34;99960.69;5092369;28;20182;-79
2023/10/03 02:12:39;;;;;;;0.00;0.00;;;;;;;21.83;68.86;99958.28;5092056;28;20177;-80
2023/10/03 02:15:09;;;;;;;0.00;0.00;;;;;;;21.74;69.12;99953.16;5091205;28;20205;-80
2023/10/03 02:17:34;;;;;;;0.00;0.00;;;;;;;22.03;68.74;99970.59;5092624;28;20207;-80
2023/10/03 02:20:00;;;;;;;0.00;0.00;;;;;;;21.80;68.54;99936.84;5091244;28;20178;-80
2023/10/03 02:22:25;;;;;;;0.00;0.00;;;;;;;21.66;69.29;99932.09;5092278;28;20185;-79
2023/10/03 02:24:50;;;;;;;0.00;0.00;;;;;;;21.38;69.89;99917.00;5092534;28;20197;-81
2023/10/03 02:27:17;;;;;;;0.20;0.20;;;;;;;21.71;69.36;99923.38;5092828;28;20268;-80
2023/10/03 02:29:42;;;;;;;0.07;0.07;;;;;;;21.39;70.07;99912.25;5092814;28;20731;-80
2023/10/03 02:32:08;;;;;;;0.00;0.00;;;;;;;21.48;70.13;99914.63;5091925;28;20182;-78
2023/10/03 02:34:34;;;;;;;0.00;0.00;;;;;;;21.47;70.06;99913.84;5091184;28;20217;-81
2023/10/03 02:37:00;;;;;;;0.00;0.00;;;;;;;21.42;70.31;99907.91;5092360;28;20181;-79
2023/10/03 02:39:35;;;;;;;1.53;1.33;;;;;;;21.44;69.87;99902.75;5092958;28;20670;-80
2023/10/03 02:42:00;;;;;;;0.00;0.00;;;;;;;21.35;70.14;99889.22;5092328;28;20185;-79
2023/10/03 02:44:27;;;;;;;0.00;0.00;;;;;;;21.14;69.74;99859.44;5092946;28;20566;-81
2023/10/03 02:46:52;;;;;;;1.07;1.07;;;;;;;21.33;70.36;99883.28;5092830;28;20178;-78
2023/10/03 02:49:18;;;;;;;0.00;0.00;;;;;;;21.33;70.00;99878.50;5090365;28;20231;-79
2023/10/03 02:51:43;;;;;;;0.00;0.00;;;;;;;21.65;68.82;99883.25;5091188;28;20177;-78
2023/10/03 02:54:09;;;;;;;0.00;0.00;;;;;;;21.55;68.97;99884.03;5091676;28;20197;-79
2023/10/03 02:56:34;;;;;;;0.10;0.10;;;;;;;21.65;68.77;99880.47;5090383;28;20217;-79
2023/10/03 02:59:00;;;;;;;0.73;0.73;;;;;;;21.62;68.37;99868.16;5090437;28;20184;-78
2023/10/03 03:01:26;;;;;;;0.60;0.60;;;;;;;21.56;68.70;99871.75;5091218;28;20205;-79
2023/10/03 03:03:52;;;;;;;0.30;0.30;;;;;;;21.62;68.24;99865.38;5091661;28;20612;-78
2023/10/03 03:06:18;;;;;;;0.00;0.00;;;;;;;21.55;68.50;99853.47;5090169;28;20227;-79
2023/10/03 03:08:45;;;;;;;0.00;0.00;;;;;;;21.56;68.57;99852.28;5091654;28;20652;-79
2023/10/03 03:11:11;;;;;;;0.40;0.40;;;;;;;21.62;68.36;99836.78;5091167;28;20182;-78
2023/10/03 03:13:37;;;;;;;6.33;1.17;;;;;;;21.57;68.16;99826.88;5090291;28;20212;-79
2023/10/03 03:16:03;;;;;;;1.80;1.70;;;;;;;21.83;67.41;99835.91;5091524;28;20562;-80
2023/10/03 03:18:40;;;;;;;0.00;0.00;;;;;;;21.68;67.10;99812.91;5091537;28;20181;-78
2023/10/03 03:21:08;;;;;;;3.73;0.23;;;;;;;21.78;67.06;99816.88;5090908;28;20185;-79
2023/10/03 03:23:39;;;;;;;2.30;2.10;;;;;;;21.79;66.59;99804.53;5091445;28;20204;-78
2023/10/03 03:26:17;;;;;;;0.00;0.00;;;;;;;21.90;66.59;99816.44;5091980;28;20169;-79
2023/10/03 03:28:46;;;;;;;0.57;0.27;;;;;;;22.10;66.00;99805.63;5091462;28;20205;-79
2023/10/03 03:31:32;;;;;;;0.00;0.00;;;;;;;22.09;65.93;99782.59;5090805;28;20689;-78
2023/10/03 03:33:57;;;;;;;0.00;0.00;;;;;;;22.06;65.66;99765.91;5091561;28;20289;-79
2023/10/03 03:36:29;;;;;;;0.80;0.80;;;;;;;21.76;66.42;99769.22;5090085;28;20285;-80
2023/10/03 03:38:56;;;;;;;9.37;3.30;;;;;;;21.76;66.24;99758.09;5091400;28;20189;-78
2023/10/03 03:41:21;;;;;;;4.20;2.37;;;;;;;21.83;66.11;99752.47;5089657;28;20178;-79
2023/10/03 03:43:48;;;;;;;2.77;2.50;;;;;;;21.82;65.89;99751.69;5093136;28;20288;-79
2023/10/03 03:46:14;;;;;;;3.47;2.43;;;;;;;21.76;66.25;99761.66;5095086;28;20178;-80
2023/10/03 03:48:40;;;;;;;1.83;1.30;;;;;;;21.93;66.03;99763.56;5094961;28;20181;-80
2023/10/03 03:51:11;;;;;;;1.37;0.90;;;;;;;21.94;65.68;99758.78;5093154;28;20177;-80
2023/10/03 03:53:36;;;;;;;0.80;0.80;;;;;;;22.06;65.45;99758.34;5095310;28;20197;-80
2023/10/03 03:56:07;;;;;;;0.00;0.00;;;;;;;22.09;65.37;99763.09;5095598;28;20201;-80
2023/10/03 03:58:33;;;;;;;4.37;1.93;;;;;;;22.15;65.13;99757.94;5093652;28;20185;-79
2023/10/03 04:01:00;;;;;;;1.83;1.70;;;;;;;22.27;64.80;99761.00;5093133;28;20659;-79
2023/10/03 04:03:29;;;;;;;5.87;2.03;;;;;;;22.31;64.35;99752.66;5094527;28;20204;-79
2023/10/03 04:05:57;;;;;;;7.80;2.60;;;;;;;22.15;64.61;99744.00;5094610;28;20656;-79
2023/10/03 04:08:23;;;;;;;0.93;0.93;;;;;;;22.55;64.15;99759.22;5093455;28;20264;-79
2023/10/03 04:10:49;;;;;;;0.10;0.10;;;;;;;22.41;64.15;99748.19;5094430;28;20648;-78
2023/10/03 04:13:17;;;;;;;0.30;0.30;;;;;;;22.08;64.85;99735.69;5093365;28;20201;-79
2023/10/03 04:15:44;;;;;;;0.77;0.67;;;;;;;22.10;65.22;99727.72;5093382;28;20213;-78
2023/10/03 04:18:10;;;;;;;3.27;1.03;;;;;;;22.02;65.15;99717.81;5093307;28;20271;-78
2023/10/03 04:20:39;;;;;;;0.73;0.27;;;;;;;22.20;64.95;99721.31;5094532;28;20181;-78
2023/10/03 04:23:06;;;;;;;7.20;0.73;;;;;;;22.02;65.21;99690.78;5094782;28;20212;-79
2023/10/03 04:25:33;;;;;;;1.50;1.27;;;;;;;21.99;65.48;99683.28;5092842;28;20181;-79
2023/10/03 04:27:58;;;;;;;0.00;0.00;;;;;;;22.20;65.04;99697.06;5094541;28;20547;-78
2023/10/03 04:30:25;;;;;;;0.53;0.53;;;;;;;22.15;64.93;99689.16;5092831;28;20272;-79
2023/10/03 04:32:52;;;;;;;0.20;0.20;;;;;;;22.18;65.20;99684.75;5092442;28;20231;-78
2023/10/03 04:35:18;;;;;;;0.10;0.10;;;;;;;22.08;64.92;99658.56;5092767;28;20197;-80
2023/10/03 04:37:44;;;;;;;0.10;0.10;;;;;;;22.13;64.94;99666.50;5092833;28;20536;-80
2023/10/03 04:40:15;;;;;;;5.87;3.27;;;;;;;22.02;65.02;99674.09;5093721;28;20185;-79
2023/10/03 04:42:41;;;;;;;0.70;0.70;;;;;;;22.23;64.96;99673.19;5092494;28;20178;-79
2023/10/03 04:45:10;;;;;;;2.00;1.90;;;;;;;22.37;64.80;99683.41;5092599;28;20217;-80
2023/10/03 04:47:37;;;;;;;6.03;3.90;;;;;;;22.24;64.34;99658.06;5094257;28;20181;-80
2023/10/03 04:50:03;;;;;;;6.57;4.73;;;;;;;22.23;64.15;99643.34;5092491;28;20180;-79
2023/10/03 04:52:28;;;;;;;9.10;1.60;;;;;;;22.37;63.83;99647.22;5093148;28;20186;-80
2023/10/03 04:54:53;;;;;;;7.60;4.73;;;;;;;22.09;64.60;99624.00;5092594;28;20567;-79
2023/10/03 04:57:19;;;;;;;0.77;0.60;;;;;;;22.43;64.01;99640.03;5092672;28;20203;-80
2023/10/03 04:59:44;;;;;;;0.50;0.50;;;;;;;22.76;63.24;99644.09;5093994;28;20177;-80
2023/10/03 05:02:11;;;;;;;4.43;3.57;;;;;;;22.59;62.97;99639.47;5093749;28;20205;-80
2023/10/03 05:04:37;;;;;;;4.80;1.23;;;;;;;22.75;62.87;99643.28;5094097;28;20566;-80
2023/10/03 05:07:02;;;;;;;10.10;3.63;;;;;;;22.56;62.64;99602.88;5093956;28;20261;-78
2023/10/03 05:09:30;;;;;;;7.67;4.17;;;;;;;22.62;62.68;99602.47;5093541;28;20177;-79
2023/10/03 05:11:56;;;;;;;3.50;2.87;;;;;;;22.85;61.89;99628.47;5093019;28;20174;-79
2023/10/03 05:14:21;;;;;;;0.40;0.40;;;;;;;22.58;62.62;99599.72;5093279;28;20204;-80
2023/10/03 05:16:50;;;;;;;1.93;0.43;;;;;;;22.87;62.05;99613.38;5092318;28;20190;-79
2023/10/03 05:19:16;;;;;;;13.77;1.87;;;;;;;22.69;62.41;99613.50;5094271;28;20174;-80
2023/10/03 05:21:43;;;;;;;4.90;3.30;;;;;;;22.71;62.22;99600.78;5095085;28;20186;-80
2023/10/03 05:24:10;;;;;;;0.43;0.43;;;;;;;23.29;61.02;99617.63;5096180;28;20194;-80
2023/10/03 05:26:37;;;;;;;12.03;11.30;;;;;;;23.58;60.26;99637.56;5095471;28;20329;-80
2023/10/03 05:29:03;;;;;;;2.20;2.10;;;;;;;23.39;60.04;99605.53;5095914;28;20197;-79
2023/10/03 05:31:28;;;;;;;0.67;0.67;;;;;;;23.14;61.08;99595.50;5093462;28;20182;-81
2023/10/03 05:33:53;;;;;;;0.00;0.00;;;;;;;22.90;61.22;99565.97;5095187;28;20243;-80
2023/10/03 05:36:19;;;;;;;8.53;1.90;;;;;;;22.96;61.23;99589.34;5094685;28;20341;-80
2023/10/03 05:38:44;;;;;;;8.03;5.17;;;;;;;22.93;61.20;99590.19;5094474;28;20277;-79
2023/10/03 05:41:21;;;;;;;26.63;3.17;;;;;;;23.00;61.56;99595.69;5094243;28;20173;-79
2023/10/03 05:43:46;;;;;;;8.50;5.37;;;;;;;22.64;61.96;99588.91;5093969;28;20200;-80
2023/10/03 05:46:12;;;;;;;8.53;6.10;;;;;;;22.64;62.30;99583.34;5094458;28;20554;-79
2023/10/03 05:48:37;;;;;;;11.40;4.03;;;;;;;22.95;61.35;99592.56;5093146;28;20263;-79
2023/10/03 05:51:02;;;;;;;3.80;2.40;;;;;;;23.01;61.23;99575.00;5093762;28;20231;-79
2023/10/03 05:53:28;;;;;;;5.57;4.70;;;;;;;23.05;60.92;99589.66;5094322;28;20734;-80
2023/10/03 05:55:53;;;;;;;3.37;2.33;;;;;;;22.83;61.37;99569.59;5092869;28;20216;-80
2023/10/03 05:58:18;;;;;;;5.33;3.17;;;;;;;22.92;61.13;99576.69;5092879;28;20185;-80
2023/10/03 06:00:44;;;;;;;5.13;3.10;;;;;;;22.77;62.27;99596.31;5093406;28;20574;-80
2023/10/03 06:03:10;;;;;;;12.27;4.97;;;;;;;22.64;62.52;99581.34;5091828;28;20197;-79
2023/10/03 06:05:35;;;;;;;6.33;5.37;;;;;;;22.48;62.71;99565.19;5093552;28;20220;-80
2023/10/03 06:08:00;;;;;;;4.40;4.00;;;;;;;22.31;63.08;99559.81;5092382;28;20184;-79
2023/10/03 06:10:29;;;;;;;0.10;0.10;;;;;;;22.67;62.94;99586.06;5091956;28;20177;-80
2023/10/03 06:12:54;;;;;;;3.20;2.77;;;;;;;22.48;62.96;99576.34;5091667;28;20615;-78
2023/10/03 06:15:19;;;;;;;8.20;4.53;;;;;;;22.70;62.50;99582.44;5092431;28;20280;-78
2023/10/03 06:17:45;;;;;;;6.57;2.57;;;;;;;22.86;62.10;99595.88;5092048;28;20234;-78
2023/10/03 06:20:14;;;;;;;9.93;4.97;;;;;;;22.74;62.42;99588.78;5090436;28;20185;-78
2023/10/03 06:22:40;;;;;;;5.10;4.33;;;;;;;22.88;61.99;99590.66;5091805;28;20202;-79
2023/10/03 06:25:07;;;;;;;0.30;0.30;;;;;;;23.06;61.73;99609.94;5092124;28;20206;-79
2023/10/03 06:27:32;;;;;;;4.83;1.27;;;;;;;23.18;61.86;99623.34;5091986;28;20182;-78
2023/10/03 06:29:58;;;;;;;4.37;3.07;;;;;;;23.01;61.74;99596.50;5090634;28;20181;-78
2023/10/03 06:32:23;;;;;;;2.50;2.30;;;;;;;23.12;61.68;99606.28;5091728;28;20260;-78
2023/10/03 06:34:48;;;;;;;9.57;4.97;;;;;;;23.01;61.40;99593.69;5091703;28;20210;-78
2023/10/03 06:37:14;;;;;;;2.80;2.50;;;;;;;23.10;61.48;99603.13;5090759;28;20201;-80
2023/10/03 06:39:41;;;;;;;5.80;4.13;;;;;;;23.31;61.27;99604.06;5091789;28;20268;-78
2023/10/03 06:42:07;;;;;;;8.77;5.53;;;;;;;23.43;60.92;99609.06;5091034;28;20190;-79
2023/10/03 06:44:33;;;;;;;6.00;4.17;;;;;;;23.19;61.38;99601.84;5090582;28;20587;-80
2023/10/03 06:46:58;;;;;;;3.13;2.83;;;;;;;23.39;61.08;99625.06;5091658;28;20533;-80
2023/10/03 06:49:23;;;;;;;6.37;3.87;;;;;;;23.24;61.55;99612.50;5091291;28;20660;-78
2023/10/03 06:51:56;;;;;;;3.20;2.33;;;;;;;23.45;61.17;99623.41;5091042;28;20270;-78
2023/10/03 06:54:23;;;;;;;21.93;5.80;;;;;;;23.40;61.09;99615.47;5092023;28;20204;-79
2023/10/03 06:56:50;;;;;;;6.67;4.37;;;;;;;23.15;61.32;99591.53;5091563;28;20552;-80
2023/10/03 06:59:16;;;;;;;11.57;4.83;;;;;;;23.45;61.59;99617.81;5092856;28;20590;-80
2023/10/03 07:01:41;;;;;;;6.77;2.33;;;;;;;23.48;61.47;99619.78;5092968;28;20297;-80
2023/10/03 07:04:07;;;;;;;5.73;2.93;;;;;;;23.42;61.83;99625.00;5094302;28;20227;-80
2023/10/03 07:06:33;;;;;;;6.77;3.67;;;;;;;23.39;61.83;99617.47;5091886;28;20235;-80
2023/10/03 07:08:58;;;;;;;7.27;4.67;;;;;;;23.43;61.91;99620.22;5092944;28;20179;-80
2023/10/03 07:11:24;;;;;;;3.50;2.47;;;;;;;23.61;62.08;99631.97;5091121;28;20247;-80
2023/10/03 07:13:50;;;;;;;4.60;2.80;;;;;;;23.59;61.77;99642.75;5092657;28;20733;-80
2023/10/03 07:16:16;;;;;;;5.63;5.07;;;;;;;23.49;61.72;99621.34;5092952;28;20203;-80
2023/10/03 07:18:43;;;;;;;8.80;3.87;;;;;;;23.68;61.82;99650.59;5093424;28;20185;-80
2023/10/03 07:21:09;;;;;;;10.97;4.10;;;;;;;23.64;62.06;99633.13;5095749;28;20855;-80
2023/10/03 07:23:34;;;;;;;2.40;2.03;;;;;;;23.60;62.20;99624.81;5095929;28;20202;-80
2023/10/03 07:26:00;;;;;;;8.47;5.23;;;;;;;23.73;61.91;99634.19;5094841;28;20170;-80
2023/10/03 07:28:25;;;;;;;10.53;6.20;;;;;;;23.68;62.62;99637.44;5095104;28;20188;-79
2023/10/03 07:30:50;;;;;;;3.07;1.77;;;;;;;23.92;61.91;99635.50;5094458;28;20244;-80
2023/10/03 07:33:16;;;;;;;6.00;3.73;;;;;;;23.96;62.50;99646.59;5096137;28;20204;-80
2023/10/03 07:35:44;;;;;;;6.10;4.30;;;;;;;24.03;61.97;99640.94;5094606;28;20202;-80
2023/10/03 07:38:11;;;;;;;5.33;2.70;;;;;;;24.13;62.52;99667.06;5096530;28;20203;-80
2023/10/03 07:40:38;;;;;;;6.67;3.80;;;;;;;24.21;61.82;99672.13;5096087;28;20256;-79
2023/10/03 07:43:12;;;;;;;2.90;2.43;;;;;;;24.17;61.91;99662.25;5096064;28;21882;-80
2023/10/03 07:45:38;;;;;;;5.53;3.97;;;;;;;24.06;62.57;99656.03;5096029;28;20174;-80
2023/10/03 07:48:05;;;;;;;1.77;1.67;;;;;;;24.26;61.60;99657.69;5096075;28;20229;-80
2023/10/03 07:50:31;;;;;;;3.87;1.17;;;;;;;24.21;62.37;99674.13;5095676;28;20190;-80
2023/10/03 07:52:57;;;;;;;3.63;3.27;;;;;;;24.04;62.27;99648.09;5095207;28;20186;-80
2023/10/03 07:55:25;;;;;;;10.20;5.03;;;;;;;23.96;62.49;99658.56;5094094;28;20221;-80
2023/10/03 07:57:54;;;;;;;3.07;2.43;;;;;;;24.18;62.69;99661.81;5095874;28;20183;-79
2023/10/03 08:00:26;;;;;;;8.10;4.80;;;;;;;23.99;62.47;99671.66;5095530;28;20709;-79
2023/10/03 08:02:52;;;;;;;2.70;2.03;;;;;;;24.27;62.38;99680.81;5094987;28;20247;-80
2023/10/03 08:05:17;;;;;;;5.93;5.23;;;;;;;23.84;62.86;99664.72;5095365;28;20217;-80
2023/10/03 08:07:47;;;;;;;4.97;4.33;;;;;;;23.92;63.41;99671.78;5096613;28;20174;-79
2023/10/03 08:10:14;;;;;;;13.80;6.90;;;;;;;23.72;63.33;99674.47;5096290;28;20223;-80
2023/10/03 08:12:40;;;;;;;8.43;4.73;;;;;;;23.82;63.31;99671.91;5095826;28;20226;-80
2023/10/03 08:15:17;;;;;;;3.67;3.37;;;;;;;23.65;64.14;99666.16;5096203;28;20360;-80
2023/10/03 08:17:56;;;;;;;3.07;2.43;;;;;;;24.06;63.63;99703.47;5096488;28;20181;-80
2023/10/03 08:20:23;;;;;;;3.67;3.17;;;;;;;23.88;64.06;99689.78;5095992;28;20170;-80
2023/10/03 08:22:51;;;;;;;7.37;4.80;;;;;;;23.90;63.53;99684.56;5095399;28;20182;-80
2023/10/03 08:25:18;;;;;;;5.43;3.83;;;;;;;24.09;63.29;99697.03;5094329;28;20374;-80
2023/10/03 08:27:46;;;;;;;10.93;4.83;;;;;;;24.06;63.03;99684.72;5095499;28;20227;-80
2023/10/03 08:30:25;;;;;;;3.23;2.93;;;;;;;24.29;62.73;99711.88;5085685;28;20195;-79
2023/10/03 08:32:52;;;;;;;5.70;3.13;;;;;;;24.09;63.51;99709.00;5094000;28;20273;-80
2023/10/03 08:35:18;;;;;;;13.90;4.07;;;;;;;24.28;63.76;99735.44;5095346;28;20220;-79
2023/10/03 08:37:43;;;;;;;4.20;3.80;;;;;;;24.10;64.40;99743.28;5094180;28;20187;-80
2023/10/03 08:40:19;;;;;;;4.80;3.53;;;;;;;24.18;64.27;99748.34;5095047;28;20209;-80
2023/10/03 08:42:52;;;;;;;5.80;4.33;;;;;;;24.21;63.86;99729.97;5093837;28;20221;-79
2023/10/03 08:45:22;;;;;;;10.00;4.10;;;;;;;24.27;63.89;99748.59;5094979;28;20174;-80
2023/10/03 08:47:52;;;;;;;8.37;5.27;;;;;;;23.99;64.35;99730.25;5093487;28;20615;-80
2023/10/03 08:50:34;;;;;;;5.10;4.53;;;;;;;24.00;64.92;99753.38;5093120;28;20240;-80
2023/10/03 08:55:48;;;;;;;8.03;5.03;;;;;;;23.99;65.35;99751.81;5094457;28;20231;-80
2023/10/03 08:58:18;;;;;;;4.87;2.13;;;;;;;24.02;65.63;99753.78;5094049;28;20551;-80
2023/10/03 09:00:46;;;;;;;6.70;4.23;;;;;;;23.82;65.68;99753.63;5093271;28;20177;-79
2023/10/03 09:03:13;;;;;;;5.97;4.77;;;;;;;23.79;66.04;99725.78;5093679;28;20213;-79
2023/10/03 09:05:40;;;;;;;4.63;2.77;;;;;;;23.77;66.63;99750.50;5092654;28;20235;-79
2023/10/03 09:08:13;;;;;;;4.30;3.93;;;;;;;24.01;66.38;99758.56;5092744;28;20636;-80
2023/10/03 09:10:51;;;;;;;1.87;1.77;;;;;;;24.27;65.68;99775.72;5093769;28;20193;-80
2023/10/03 09:13:23;;;;;;;8.47;4.47;;;;;;;23.77;66.51;99748.50;5092496;28;20327;-79
2023/10/03 09:15:50;;;;;;;5.60;4.00;;;;;;;23.81;66.97;99760.41;5093766;28;20213;-80
2023/10/03 09:18:21;;;;;;;6.77;4.03;;;;;;;23.86;66.98;99775.88;5092518;28;20207;-80
2023/10/03 09:20:49;;;;;;;6.10;3.73;;;;;;;24.06;66.62;99770.47;5093395;28;20179;-80
2023/10/03 09:23:17;;;;;;;2.60;1.87;;;;;;;23.86;66.60;99756.34;5093521;28;20226;-79
2023/10/03 09:25:48;;;;;;;4.83;3.67;;;;;;;23.93;66.89;99759.06;5093897;28;20227;-79
2023/10/03 09:28:14;;;;;;;4.03;3.57;;;;;;;23.85;66.80;99768.72;5092082;28;20261;-78
2023/10/03 09:30:40;;;;;;;6.33;4.63;;;;;;;24.01;66.70;99775.31;5093544;28;20179;-80
2023/10/03 09:33:10;;;;;;;4.97;4.23;;;;;;;23.69;67.72;99758.97;5094912;28;20198;-79
2023/10/03 09:35:39;;;;;;;11.30;4.97;;;;;;;23.68;67.89;99751.00;5092864;28;20202;-79
2023/10/03 09:38:08;;;;;;;9.33;4.83;;;;;;;23.93;67.61;99784.97;5091432;28;20218;-78
2023/10/03 09:40:48;;;;;;;7.33;4.77;;;;;;;23.94;67.71;99771.81;5092047;28;20176;-79
2023/10/03 09:43:16;;;;;;;7.53;5.17;;;;;;;23.82;67.65;99769.56;5090885;28;20251;-78
2023/10/03 09:45:42;;;;;;;6.97;2.77;;;;;;;23.82;67.85;99791.88;5092624;28;20182;-80
2023/10/03 09:48:08;;;;;;;5.33;4.17;;;;;;;23.81;67.94;99795.88;5091466;28;20186;-78
2023/10/03 09:50:35;;;;;;;5.90;4.30;;;;;;;23.76;67.79;99782.41;5092248;28;20182;-80
2023/10/03 09:53:01;;;;;;;10.47;5.53;;;;;;;23.63;68.26;99782.16;5092264;28;20256;-80
2023/10/03 09:55:41;;;;;;;7.17;4.57;;;;;;;23.74;68.34;99805.94;5091035;28;20206;-79
2023/10/03 09:58:07;;;;;;;3.33;3.03;;;;;;;23.82;68.40;99808.63;5092629;28;20177;-79
2023/10/03 10:00:39;;;;;;;5.23;3.27;;;;;;;23.70;68.54;99801.59;5090885;28;20653;-79
2023/10/03 10:03:28;;;;;;;4.57;3.33;;;;;;;23.98;68.99;99831.16;5091860;28;20206;-78
2023/10/03 10:06:15;;;;;;;3.93;3.33;;;;;;;24.26;68.35;99832.78;5092481;28;20247;-78
2023/10/03 10:08:48;;;;;;;7.17;4.23;;;;;;;24.18;67.71;99829.31;5091027;28;20183;-80
2023/10/03 10:11:14;;;;;;;7.00;5.43;;;;;;;24.03;68.09;99833.50;5091489;28;20599;-79
2023/10/03 10:14:09;;;;;;;6.87;5.10;;;;;;;24.17;68.36;99841.69;5090736;28;20267;-80
2023/10/03 10:17:03;;;;;;;4.33;2.93;;;;;;;24.26;68.30;99875.47;5092242;28;20273;-79
2023/10/03 10:20:07;;;;;;;25.23;6.17;;;;;;;23.48;68.77;99826.13;5092017;28;20190;-78
2023/10/03 10:23:02;;;;;;;25.93;5.10;;;;;;;23.45;68.26;99824.16;5090941;28;20217;-79
2023/10/03 10:25:30;;;;;;;8.93;4.87;;;;;;;23.43;68.52;99854.44;5091228;28;20178;-80
2023/10/03 10:28:01;;;;;;;3.47;3.17;;;;;;;23.79;67.57;99845.75;5091171;28;20250;-79
2023/10/03 10:30:26;;;;;;;8.10;4.17;;;;;;;23.57;67.53;99833.97;5090924;28;20224;-79
2023/10/03 10:33:17;;;;;;;22.53;4.23;;;;;;;23.76;67.90;99857.72;5091030;28;20216;-79
2023/10/03 10:35:56;;;;;;;5.03;3.77;;;;;;;23.66;67.28;99845.47;5091141;28;20663;-79
2023/10/03 10:38:31;;;;;;;3.37;2.47;;;;;;;23.84;67.05;99848.06;5092045;28;20185;-81
2023/10/03 10:41:11;;;;;;;2.40;2.13;;;;;;;23.95;66.28;99855.09;5091904;28;20178;-80
2023/10/03 10:44:16;;;;;;;2.70;2.23;;;;;;;23.64;66.15;99822.78;5092027;28;20201;-80
2023/10/03 10:46:49;;;;;;;1.83;1.33;;;;;;;23.99;66.37;99855.84;5092110;28;20188;-80
2023/10/03 10:49:40;;;;;;;3.40;1.67;;;;;;;24.02;65.63;99840.28;5093023;28;20213;-80
2023/10/03 10:52:12;;;;;;;3.23;2.93;;;;;;;24.07;66.17;99864.16;5091301;28;20190;-79
2023/10/03 10:54:39;;;;;;;5.10;3.13;;;;;;;23.96;66.26;99858.69;5096075;28;20256;-80
2023/10/03 10:57:14;;;;;;;3.40;3.10;;;;;;;24.04;66.03;99869.38;5096189;28;20264;-80
2023/10/03 10:59:40;;;;;;;2.07;1.90;;;;;;;24.01;65.94;99855.44;5095024;28;20185;-80
2023/10/03 11:02:19;;;;;;;3.57;2.80;;;;;;;24.03;66.59;99880.94;5094106;28;20197;-80
2023/10/03 11:04:52;;;;;;;2.70;2.50;;;;;;;23.83;66.75;99879.97;5094720;28;20208;-79
2023/10/03 11:07:28;;;;;;;2.60;2.33;;;;;;;23.63;67.32;99882.56;5096369;28;20814;-80
2023/10/03 11:09:56;;;;;;;7.23;3.80;;;;;;;23.59;67.74;99882.63;5096309;28;20217;-80
2023/10/03 11:12:28;;;;;;;1.93;1.83;;;;;;;23.64;67.34;99878.56;5095427;28;20186;-80
2023/10/03 11:14:55;;;;;;;12.13;3.13;;;;;;;23.71;67.54;99881.28;5094341;28;20233;-80
2023/10/03 11:17:24;;;;;;;3.43;2.93;;;;;;;23.55;67.76;99881.81;5095663;28;20223;-80
2023/10/03 11:19:50;;;;;;;1.37;1.20;;;;;;;23.78;67.86;99883.22;5093943;28;20181;-79
2023/10/03 11:22:17;;;;;;;9.73;3.20;;;;;;;23.57;67.03;99854.31;5057876;28;1069815;-80
2023/10/03 11:24:44;;;;;;;3.03;2.73;;;;;;;23.72;67.02;99868.91;5095307;28;20668;-80
2023/10/03 11:27:21;;;;;;;1.97;1.77;;;;;;;23.81;66.94;99869.22;5096778;28;20182;-80
2023/10/03 11:29:47;;;;;;;5.27;3.33;;;;;;;23.68;66.74;99852.22;5096225;28;20189;-79
2023/10/03 11:32:24;;;;;;;2.63;2.13;;;;;;;23.90;66.38;99860.38;5095075;28;20307;-80
2023/10/03 11:34:51;;;;;;;8.07;3.57;;;;;;;23.58;67.02;99839.19;5096088;28;20680;-80
2023/10/03 11:37:39;;;;;;;1.77;1.67;;;;;;;23.95;65.97;99851.53;5095192;28;20183;-80
2023/10/03 11:40:07;;;;;;;4.67;2.23;;;;;;;23.93;66.68;99856.75;5096598;28;20234;-79
2023/10/03 11:42:32;;;;;;;1.77;1.63;;;;;;;24.05;66.37;99847.81;5095648;28;20173;-80
2023/10/03 11:44:59;;;;;;;5.23;3.23;;;;;;;23.57;66.34;99809.69;5087674;28;20659;-79
2023/10/03 11:47:24;;;;;;;2.87;2.67;;;;;;;23.93;66.08;99840.00;5094473;28;20184;-80